sensor_id;sensor_type;location;lat;lon;timestamp;temperature;humidity
46730;DHT22;32476;50.002;11.854;2023-12-04T00:01:54;-8.50;99.90
46730;DHT22;32476;50.002;11.854;2023-12-04T00:04:20;-8.30;99.90
46730;DHT22;32476;50.002;11.854;2023-12-04T00:06:46;-8.40;99.90
46730;DHT22;32476;50.002;11.854;2023-12-04T00:09:13;-8.20;99.90
46730;DHT22;32476;50.002;11.854;2023-12-04T00:11:39;-8.20;99.90
46730;DHT22;32476;50.002;11.854;2023-12-04T00:14:05;-8.10;99.90
46730;DHT22;32476;50.002;11.854;2023-12-04T00:16:34;-8.10;99.90
46730;DHT22;32476;50.002;11.854;2023-12-04T00:19:01;-8.10;99.90
46730;DHT22;32476;50.002;11.854;2023-12-04T00:21:27;-8.10;99.90
46730;DHT22;32476;50.002;11.854;2023-12-04T00:23:54;-8.10;99.90
46730;DHT22;32476;50.002;11.854;2023-12-04T00:26:20;-8.10;99.90
46730;DHT22;32476;50.002;11.854;2023-12-04T00:28:46;-8.10;99.90
46730;DHT22;32476;50.002;11.854;2023-12-04T00:31:13;-8.10;99.90
46730;DHT22;32476;50.002;11.854;2023-12-04T00:33:39;-8.00;99.90
46730;DHT22;32476;50.002;11.854;2023-12-04T00:36:05;-8.00;99.90
46730;DHT22;32476;50.002;11.854;2023-12-04T00:38:33;-8.00;99.90
46730;DHT22;32476;50.002;11.854;2023-12-04T00:40:58;-8.00;99.90
46730;DHT22;32476;50.002;11.854;2023-12-04T00:43:24;-8.00;99.90
46730;DHT22;32476;50.002;11.854;2023-12-04T00:45:52;-8.10;99.90
46730;DHT22;32476;50.002;11.854;2023-12-04T00:48:18;-8.10;99.90
46730;DHT22;32476;50.002;11.854;2023-12-04T00:50:43;-8.10;99.90
46730;DHT22;32476;50.002;11.854;2023-12-04T00:53:12;-8.10;99.90
46730;DHT22;32476;50.002;11.854;2023-12-04T00:55:39;-8.20;99.90
46730;DHT22;32476;50.002;11.854;2023-12-04T00:58:04;-8.20;99.90
46730;DHT22;32476;50.002;11.854;2023-12-04T01:00:32;-8.20;99.90
46730;DHT22;32476;50.002;11.854;2023-12-04T01:02:58;-8.20;99.90
46730;DHT22;32476;50.002;11.854;2023-12-04T01:05:24;-8.20;99.90
46730;DHT22;32476;50.002;11.854;2023-12-04T01:07:52;-8.20;99.90
46730;DHT22;32476;50.002;11.854;2023-12-04T01:10:18;-8.10;99.90
46730;DHT22;32476;50.002;11.854;2023-12-04T01:12:44;-8.10;99.90
46730;DHT22;32476;50.002;11.854;2023-12-04T01:15:11;-8.10;99.90
46730;DHT22;32476;50.002;11.854;2023-12-04T01:17:37;-8.10;99.90
46730;DHT22;32476;50.002;11.854;2023-12-04T01:20:04;-8.10;99.90
46730;DHT22;32476;50.002;11.854;2023-12-04T01:22:32;-8.10;99.90
46730;DHT22;32476;50.002;11.854;2023-12-04T01:24:57;-8.10;99.90
46730;DHT22;32476;50.002;11.854;2023-12-04T01:27:25;-8.10;99.90
46730;DHT22;32476;50.002;11.854;2023-12-04T01:29:52;-8.00;99.90
46730;DHT22;32476;50.002;11.854;2023-12-04T01:32:18;-8.00;99.90
46730;DHT22;32476;50.002;11.854;2023-12-04T01:34:44;-8.00;99.90
46730;DHT22;32476;50.002;11.854;2023-12-04T01:37:11;-8.10;99.90
46730;DHT22;32476;50.002;11.854;2023-12-04T01:39:37;-8.00;99.90
46730;DHT22;32476;50.002;11.854;2023-12-04T01:42:03;-8.00;99.90
46730;DHT22;32476;50.002;11.854;2023-12-04T01:44:31;-8.00;99.90
46730;DHT22;32476;50.002;11.854;2023-12-04T01:46:57;-8.00;99.90
46730;DHT22;32476;50.002;11.854;2023-12-04T01:49:23;-8.00;99.90
46730;DHT22;32476;50.002;11.854;2023-12-04T01:51:51;-8.10;99.90
46730;DHT22;32476;50.002;11.854;2023-12-04T01:54:17;-8.10;99.90
46730;DHT22;32476;50.002;11.854;2023-12-04T01:56:44;-8.10;99.90
46730;DHT22;32476;50.002;11.854;2023-12-04T01:59:11;-8.10;99.90
46730;DHT22;32476;50.002;11.854;2023-12-04T02:01:39;-8.10;99.90
46730;DHT22;32476;50.002;11.854;2023-12-04T02:04:06;-8.10;99.90
46730;DHT22;32476;50.002;11.854;2023-12-04T02:06:34;-8.10;99.90
46730;DHT22;32476;50.002;11.854;2023-12-04T02:09:01;-8.10;99.90
46730;DHT22;32476;50.002;11.854;2023-12-04T02:11:27;-8.10;99.90
46730;DHT22;32476;50.002;11.854;2023-12-04T02:13:55;-8.20;99.90
46730;DHT22;32476;50.002;11.854;2023-12-04T02:16:23;-8.20;99.90
46730;DHT22;32476;50.002;11.854;2023-12-04T02:18:52;-8.20;99.90
46730;DHT22;32476;50.002;11.854;2023-12-04T02:21:19;-8.30;99.90
46730;DHT22;32476;50.002;11.854;2023-12-04T02:23:50;-8.30;99.90
46730;DHT22;32476;50.002;11.854;2023-12-04T02:26:17;-8.30;99.90
46730;DHT22;32476;50.002;11.854;2023-12-04T02:28:49;-8.40;99.90
46730;DHT22;32476;50.002;11.854;2023-12-04T02:31:17;-8.40;99.90
46730;DHT22;32476;50.002;11.854;2023-12-04T02:33:47;-8.50;99.90
46730;DHT22;32476;50.002;11.854;2023-12-04T02:36:14;-8.50;99.90
46730;DHT22;32476;50.002;11.854;2023-12-04T02:38:40;-8.60;99.90
46730;DHT22;32476;50.002;11.854;2023-12-04T02:41:08;-8.60;99.90
46730;DHT22;32476;50.002;11.854;2023-12-04T02:43:34;-8.70;99.90
46730;DHT22;32476;50.002;11.854;2023-12-04T02:46:00;-8.70;99.90
46730;DHT22;32476;50.002;11.854;2023-12-04T02:48:27;-8.80;99.90
46730;DHT22;32476;50.002;11.854;2023-12-04T02:50:53;-8.80;99.90
46730;DHT22;32476;50.002;11.854;2023-12-04T02:53:19;-8.90;99.90
46730;DHT22;32476;50.002;11.854;2023-12-04T02:55:46;-8.90;99.90
46730;DHT22;32476;50.002;11.854;2023-12-04T02:58:12;-9.00;99.90
46730;DHT22;32476;50.002;11.854;2023-12-04T03:00:38;-9.10;99.90
46730;DHT22;32476;50.002;11.854;2023-12-04T03:03:06;-9.10;99.90
46730;DHT22;32476;50.002;11.854;2023-12-04T03:05:31;-9.10;99.90
46730;DHT22;32476;50.002;11.854;2023-12-04T03:07:57;-9.10;99.90
46730;DHT22;32476;50.002;11.854;2023-12-04T03:10:25;-9.20;99.90
46730;DHT22;32476;50.002;11.854;2023-12-04T03:12:51;-9.10;99.90
46730;DHT22;32476;50.002;11.854;2023-12-04T03:15:17;-9.10;99.90
46730;DHT22;32476;50.002;11.854;2023-12-04T03:17:44;-9.10;99.90
46730;DHT22;32476;50.002;11.854;2023-12-04T03:20:10;-9.00;99.90
46730;DHT22;32476;50.002;11.854;2023-12-04T03:22:37;-9.10;99.90
46730;DHT22;32476;50.002;11.854;2023-12-04T03:25:05;-9.10;99.90
46730;DHT22;32476;50.002;11.854;2023-12-04T03:27:31;-8.90;99.90
46730;DHT22;32476;50.002;11.854;2023-12-04T03:29:57;-8.70;99.90
46730;DHT22;32476;50.002;11.854;2023-12-04T03:32:24;-8.60;99.90
46730;DHT22;32476;50.002;11.854;2023-12-04T03:34:52;-8.60;99.90
46730;DHT22;32476;50.002;11.854;2023-12-04T03:37:17;-8.50;99.90
46730;DHT22;32476;50.002;11.854;2023-12-04T03:39:45;-8.60;99.90
46730;DHT22;32476;50.002;11.854;2023-12-04T03:42:11;-8.50;99.90
46730;DHT22;32476;50.002;11.854;2023-12-04T03:44:36;-8.50;99.90
46730;DHT22;32476;50.002;11.854;2023-12-04T03:47:04;-8.50;99.90
46730;DHT22;32476;50.002;11.854;2023-12-04T03:49:30;-8.50;99.90
46730;DHT22;32476;50.002;11.854;2023-12-04T03:51:56;-8.50;99.90
46730;DHT22;32476;50.002;11.854;2023-12-04T03:54:24;-8.50;99.90
46730;DHT22;32476;50.002;11.854;2023-12-04T03:56:52;-8.50;99.90
46730;DHT22;32476;50.002;11.854;2023-12-04T03:59:18;-8.60;99.90
46730;DHT22;32476;50.002;11.854;2023-12-04T04:01:46;-8.60;99.90
46730;DHT22;32476;50.002;11.854;2023-12-04T04:04:12;-8.50;99.90
46730;DHT22;32476;50.002;11.854;2023-12-04T04:06:37;-8.50;99.90
46730;DHT22;32476;50.002;11.854;2023-12-04T04:09:05;-8.50;99.90
46730;DHT22;32476;50.002;11.854;2023-12-04T04:11:34;-8.50;99.90
46730;DHT22;32476;50.002;11.854;2023-12-04T04:14:01;-8.50;99.90
46730;DHT22;32476;50.002;11.854;2023-12-04T04:16:28;-8.60;99.90
46730;DHT22;32476;50.002;11.854;2023-12-04T04:18:54;-8.50;99.90
46730;DHT22;32476;50.002;11.854;2023-12-04T04:21:20;-8.50;99.90
46730;DHT22;32476;50.002;11.854;2023-12-04T04:23:47;-8.40;99.90
46730;DHT22;32476;50.002;11.854;2023-12-04T04:26:13;-8.50;99.90
46730;DHT22;32476;50.002;11.854;2023-12-04T04:28:39;-8.30;99.90
46730;DHT22;32476;50.002;11.854;2023-12-04T04:31:07;-8.30;99.90
46730;DHT22;32476;50.002;11.854;2023-12-04T04:33:33;-8.40;99.90
46730;DHT22;32476;50.002;11.854;2023-12-04T04:35:59;-8.50;99.90
46730;DHT22;32476;50.002;11.854;2023-12-04T04:38:27;-8.40;99.90
46730;DHT22;32476;50.002;11.854;2023-12-04T04:40:53;-8.30;99.90
46730;DHT22;32476;50.002;11.854;2023-12-04T04:43:20;-8.40;99.90
46730;DHT22;32476;50.002;11.854;2023-12-04T04:45:47;-8.50;99.90
46730;DHT22;32476;50.002;11.854;2023-12-04T04:48:13;-8.40;99.90
46730;DHT22;32476;50.002;11.854;2023-12-04T04:50:39;-8.30;99.90
46730;DHT22;32476;50.002;11.854;2023-12-04T04:53:06;-8.30;99.90
46730;DHT22;32476;50.002;11.854;2023-12-04T04:55:32;-8.30;99.90
46730;DHT22;32476;50.002;11.854;2023-12-04T04:57:58;-8.20;99.90
46730;DHT22;32476;50.002;11.854;2023-12-04T05:00:25;-8.20;99.90
46730;DHT22;32476;50.002;11.854;2023-12-04T05:02:51;-8.20;99.90
46730;DHT22;32476;50.002;11.854;2023-12-04T05:05:18;-8.20;99.90
46730;DHT22;32476;50.002;11.854;2023-12-04T05:07:45;-8.30;99.90
46730;DHT22;32476;50.002;11.854;2023-12-04T05:10:11;-8.40;99.90
46730;DHT22;32476;50.002;11.854;2023-12-04T05:12:38;-8.50;99.90
46730;DHT22;32476;50.002;11.854;2023-12-04T05:15:05;-8.40;99.90
46730;DHT22;32476;50.002;11.854;2023-12-04T05:17:31;-8.60;99.90
46730;DHT22;32476;50.002;11.854;2023-12-04T05:19:57;-8.60;99.90
46730;DHT22;32476;50.002;11.854;2023-12-04T05:22:25;-8.60;99.90
46730;DHT22;32476;50.002;11.854;2023-12-04T05:24:51;-8.50;99.90
46730;DHT22;32476;50.002;11.854;2023-12-04T05:27:16;-8.60;99.90
46730;DHT22;32476;50.002;11.854;2023-12-04T05:29:44;-8.60;99.90
46730;DHT22;32476;50.002;11.854;2023-12-04T05:32:10;-8.60;99.90
46730;DHT22;32476;50.002;11.854;2023-12-04T05:34:35;-8.60;99.90
46730;DHT22;32476;50.002;11.854;2023-12-04T05:37:03;-8.70;99.90
46730;DHT22;32476;50.002;11.854;2023-12-04T05:39:29;-8.50;99.90
46730;DHT22;32476;50.002;11.854;2023-12-04T05:41:55;-8.40;99.90
46730;DHT22;32476;50.002;11.854;2023-12-04T05:44:23;-8.30;99.90
46730;DHT22;32476;50.002;11.854;2023-12-04T05:46:49;-8.10;99.90
46730;DHT22;32476;50.002;11.854;2023-12-04T05:49:15;-8.20;99.90
46730;DHT22;32476;50.002;11.854;2023-12-04T05:51:42;-8.00;99.90
46730;DHT22;32476;50.002;11.854;2023-12-04T05:54:08;-8.00;99.90
46730;DHT22;32476;50.002;11.854;2023-12-04T05:56:34;-8.20;99.90
46730;DHT22;32476;50.002;11.854;2023-12-04T05:59:03;-8.20;99.90
46730;DHT22;32476;50.002;11.854;2023-12-04T06:01:29;-8.10;99.90
46730;DHT22;32476;50.002;11.854;2023-12-04T06:03:57;-8.00;99.90
46730;DHT22;32476;50.002;11.854;2023-12-04T06:06:24;-7.90;99.90
46730;DHT22;32476;50.002;11.854;2023-12-04T06:08:50;-8.00;99.90
46730;DHT22;32476;50.002;11.854;2023-12-04T06:11:16;-8.10;99.90
46730;DHT22;32476;50.002;11.854;2023-12-04T06:13:43;-8.20;99.90
46730;DHT22;32476;50.002;11.854;2023-12-04T06:16:09;-8.20;99.90
46730;DHT22;32476;50.002;11.854;2023-12-04T06:18:35;-8.20;99.90
46730;DHT22;32476;50.002;11.854;2023-12-04T06:21:04;-8.30;99.90
46730;DHT22;32476;50.002;11.854;2023-12-04T06:23:30;-8.30;99.90
46730;DHT22;32476;50.002;11.854;2023-12-04T06:25:57;-8.20;99.90
46730;DHT22;32476;50.002;11.854;2023-12-04T06:28:24;-8.10;99.90
46730;DHT22;32476;50.002;11.854;2023-12-04T06:30:50;-8.10;99.90
46730;DHT22;32476;50.002;11.854;2023-12-04T06:33:17;-8.20;99.90
46730;DHT22;32476;50.002;11.854;2023-12-04T06:35:46;-8.20;99.90
46730;DHT22;32476;50.002;11.854;2023-12-04T06:38:16;-8.20;99.90
46730;DHT22;32476;50.002;11.854;2023-12-04T06:40:45;-8.40;99.90
46730;DHT22;32476;50.002;11.854;2023-12-04T06:43:12;-8.30;99.90
46730;DHT22;32476;50.002;11.854;2023-12-04T06:45:40;-8.30;99.90
46730;DHT22;32476;50.002;11.854;2023-12-04T06:48:08;-8.30;99.90
46730;DHT22;32476;50.002;11.854;2023-12-04T06:50:36;-8.20;99.90
46730;DHT22;32476;50.002;11.854;2023-12-04T06:53:03;-8.10;99.90
46730;DHT22;32476;50.002;11.854;2023-12-04T06:55:30;-8.10;99.90
46730;DHT22;32476;50.002;11.854;2023-12-04T06:57:56;-8.00;99.90
46730;DHT22;32476;50.002;11.854;2023-12-04T07:00:22;-8.00;99.90
46730;DHT22;32476;50.002;11.854;2023-12-04T07:02:50;-8.10;99.90
46730;DHT22;32476;50.002;11.854;2023-12-04T07:05:17;-8.10;99.90
46730;DHT22;32476;50.002;11.854;2023-12-04T07:07:43;-8.20;99.90
46730;DHT22;32476;50.002;11.854;2023-12-04T07:10:10;-8.10;99.90
46730;DHT22;32476;50.002;11.854;2023-12-04T07:12:42;-8.20;99.90
46730;DHT22;32476;50.002;11.854;2023-12-04T07:15:08;-8.20;99.90
46730;DHT22;32476;50.002;11.854;2023-12-04T07:17:37;-8.10;99.90
46730;DHT22;32476;50.002;11.854;2023-12-04T07:20:03;-8.10;99.90
46730;DHT22;32476;50.002;11.854;2023-12-04T07:22:32;-8.10;99.90
46730;DHT22;32476;50.002;11.854;2023-12-04T07:25:00;-8.10;99.90
46730;DHT22;32476;50.002;11.854;2023-12-04T07:27:26;-8.10;99.90
46730;DHT22;32476;50.002;11.854;2023-12-04T07:29:54;-7.90;99.90
46730;DHT22;32476;50.002;11.854;2023-12-04T07:32:22;-7.90;99.90
46730;DHT22;32476;50.002;11.854;2023-12-04T07:34:50;-7.90;99.90
46730;DHT22;32476;50.002;11.854;2023-12-04T07:37:18;-7.90;99.90
46730;DHT22;32476;50.002;11.854;2023-12-04T07:39:50;-7.60;99.90
46730;DHT22;32476;50.002;11.854;2023-12-04T07:42:18;-7.50;99.90
46730;DHT22;32476;50.002;11.854;2023-12-04T07:44:46;-7.30;99.90
46730;DHT22;32476;50.002;11.854;2023-12-04T07:47:18;-7.20;99.90
46730;DHT22;32476;50.002;11.854;2023-12-04T07:49:55;-7.10;99.90
46730;DHT22;32476;50.002;11.854;2023-12-04T07:52:26;-7.00;99.90
46730;DHT22;32476;50.002;11.854;2023-12-04T07:54:53;-6.80;99.90
46730;DHT22;32476;50.002;11.854;2023-12-04T07:57:21;-6.70;99.90
46730;DHT22;32476;50.002;11.854;2023-12-04T07:59:51;-6.60;99.90
46730;DHT22;32476;50.002;11.854;2023-12-04T08:02:18;-6.50;99.90
46730;DHT22;32476;50.002;11.854;2023-12-04T08:04:46;-6.40;99.90
46730;DHT22;32476;50.002;11.854;2023-12-04T08:07:19;-6.40;99.90
46730;DHT22;32476;50.002;11.854;2023-12-04T08:09:49;-6.30;99.90
46730;DHT22;32476;50.002;11.854;2023-12-04T08:12:19;-6.30;99.90
46730;DHT22;32476;50.002;11.854;2023-12-04T08:14:48;-6.30;99.90
46730;DHT22;32476;50.002;11.854;2023-12-04T08:17:18;-6.20;99.90
46730;DHT22;32476;50.002;11.854;2023-12-04T08:19:45;-6.10;99.90
46730;DHT22;32476;50.002;11.854;2023-12-04T08:22:14;-6.10;99.90
46730;DHT22;32476;50.002;11.854;2023-12-04T08:24:44;-5.90;99.90
46730;DHT22;32476;50.002;11.854;2023-12-04T08:27:14;-5.90;99.90
46730;DHT22;32476;50.002;11.854;2023-12-04T08:29:44;-5.80;99.90
46730;DHT22;32476;50.002;11.854;2023-12-04T08:32:10;-5.70;99.90
46730;DHT22;32476;50.002;11.854;2023-12-04T08:34:38;-5.60;99.90
46730;DHT22;32476;50.002;11.854;2023-12-04T08:37:11;-5.60;99.90
46730;DHT22;32476;50.002;11.854;2023-12-04T08:39:39;-5.50;99.90
46730;DHT22;32476;50.002;11.854;2023-12-04T08:42:11;-5.40;99.90
46730;DHT22;32476;50.002;11.854;2023-12-04T08:44:39;-5.40;99.90
46730;DHT22;32476;50.002;11.854;2023-12-04T08:47:05;-5.30;99.90
46730;DHT22;32476;50.002;11.854;2023-12-04T08:49:33;-5.20;99.90
46730;DHT22;32476;50.002;11.854;2023-12-04T08:51:59;-5.00;99.90
46730;DHT22;32476;50.002;11.854;2023-12-04T08:54:25;-4.90;99.90
46730;DHT22;32476;50.002;11.854;2023-12-04T08:56:53;-4.90;99.90
46730;DHT22;32476;50.002;11.854;2023-12-04T08:59:19;-4.70;99.90
46730;DHT22;32476;50.002;11.854;2023-12-04T09:01:45;-4.60;99.90
46730;DHT22;32476;50.002;11.854;2023-12-04T09:04:13;-4.50;99.90
46730;DHT22;32476;50.002;11.854;2023-12-04T09:06:38;-4.40;99.90
46730;DHT22;32476;50.002;11.854;2023-12-04T09:09:05;-4.40;99.90
46730;DHT22;32476;50.002;11.854;2023-12-04T09:11:32;-4.40;99.90
46730;DHT22;32476;50.002;11.854;2023-12-04T09:13:58;-4.30;99.90
46730;DHT22;32476;50.002;11.854;2023-12-04T09:16:23;-4.30;99.90
46730;DHT22;32476;50.002;11.854;2023-12-04T09:18:51;-4.20;99.90
46730;DHT22;32476;50.002;11.854;2023-12-04T09:21:19;-4.30;99.90
46730;DHT22;32476;50.002;11.854;2023-12-04T09:27:06;-4.40;99.90
46730;DHT22;32476;50.002;11.854;2023-12-04T09:29:33;-4.40;99.90
46730;DHT22;32476;50.002;11.854;2023-12-04T09:32:00;-4.30;99.90
46730;DHT22;32476;50.002;11.854;2023-12-04T09:34:34;-4.20;99.90
46730;DHT22;32476;50.002;11.854;2023-12-04T09:37:00;-4.10;99.90
46730;DHT22;32476;50.002;11.854;2023-12-04T09:39:28;-4.10;99.90
46730;DHT22;32476;50.002;11.854;2023-12-04T09:41:56;-3.90;99.90
46730;DHT22;32476;50.002;11.854;2023-12-04T09:44:23;-3.70;99.90
46730;DHT22;32476;50.002;11.854;2023-12-04T09:46:51;-3.60;99.90
46730;DHT22;32476;50.002;11.854;2023-12-04T09:49:17;-3.40;99.90
46730;DHT22;32476;50.002;11.854;2023-12-04T09:51:44;-3.30;99.90
46730;DHT22;32476;50.002;11.854;2023-12-04T09:54:12;-3.20;99.90
46730;DHT22;32476;50.002;11.854;2023-12-04T09:56:38;-3.10;99.90
46730;DHT22;32476;50.002;11.854;2023-12-04T09:59:06;-3.10;99.90
46730;DHT22;32476;50.002;11.854;2023-12-04T10:01:35;-3.00;99.90
46730;DHT22;32476;50.002;11.854;2023-12-04T10:04:02;-3.00;99.90
46730;DHT22;32476;50.002;11.854;2023-12-04T10:06:31;-3.00;99.90
46730;DHT22;32476;50.002;11.854;2023-12-04T10:08:59;-2.80;99.90
46730;DHT22;32476;50.002;11.854;2023-12-04T10:11:25;-2.80;99.90
46730;DHT22;32476;50.002;11.854;2023-12-04T10:13:54;-2.90;99.90
46730;DHT22;32476;50.002;11.854;2023-12-04T10:16:32;-2.80;99.90
46730;DHT22;32476;50.002;11.854;2023-12-04T10:21:47;-3.00;99.90
46730;DHT22;32476;50.002;11.854;2023-12-04T10:26:54;-3.00;99.90
46730;DHT22;32476;50.002;11.854;2023-12-04T10:29:20;-3.20;99.90
46730;DHT22;32476;50.002;11.854;2023-12-04T10:31:45;-3.20;99.90
46730;DHT22;32476;50.002;11.854;2023-12-04T10:34:15;-3.30;99.90
46730;DHT22;32476;50.002;11.854;2023-12-04T10:36:41;-3.30;99.90
46730;DHT22;32476;50.002;11.854;2023-12-04T10:39:06;-3.20;99.90
46730;DHT22;32476;50.002;11.854;2023-12-04T10:41:34;-3.20;99.90
46730;DHT22;32476;50.002;11.854;2023-12-04T10:44:00;-3.20;99.90
46730;DHT22;32476;50.002;11.854;2023-12-04T10:46:27;-3.10;99.90
46730;DHT22;32476;50.002;11.854;2023-12-04T10:48:55;-3.00;99.90
46730;DHT22;32476;50.002;11.854;2023-12-04T10:51:22;-2.90;99.90
46730;DHT22;32476;50.002;11.854;2023-12-04T10:53:49;-2.90;99.90
46730;DHT22;32476;50.002;11.854;2023-12-04T10:56:31;-2.70;99.90
46730;DHT22;32476;50.002;11.854;2023-12-04T10:59:00;-2.70;99.90
46730;DHT22;32476;50.002;11.854;2023-12-04T11:01:29;-2.60;99.90
46730;DHT22;32476;50.002;11.854;2023-12-04T11:03:59;-2.60;99.90
46730;DHT22;32476;50.002;11.854;2023-12-04T11:06:30;-2.60;99.90
46730;DHT22;32476;50.002;11.854;2023-12-04T11:08:57;-2.50;99.90
46730;DHT22;32476;50.002;11.854;2023-12-04T11:11:31;-2.50;99.90
46730;DHT22;32476;50.002;11.854;2023-12-04T11:14:01;-2.50;99.90
46730;DHT22;32476;50.002;11.854;2023-12-04T11:16:41;-2.60;99.90
46730;DHT22;32476;50.002;11.854;2023-12-04T11:19:55;-2.70;99.90
46730;DHT22;32476;50.002;11.854;2023-12-04T11:22:21;-2.80;99.90
46730;DHT22;32476;50.002;11.854;2023-12-04T11:24:49;-2.80;99.90
46730;DHT22;32476;50.002;11.854;2023-12-04T11:27:16;-2.80;99.90
46730;DHT22;32476;50.002;11.854;2023-12-04T11:29:44;-2.80;99.90
46730;DHT22;32476;50.002;11.854;2023-12-04T11:32:15;-2.90;99.90
46730;DHT22;32476;50.002;11.854;2023-12-04T11:35:12;-2.80;99.90
46730;DHT22;32476;50.002;11.854;2023-12-04T11:37:42;-2.70;99.90
46730;DHT22;32476;50.002;11.854;2023-12-04T11:40:11;-2.50;99.90
46730;DHT22;32476;50.002;11.854;2023-12-04T11:42:38;-2.10;99.90
46730;DHT22;32476;50.002;11.854;2023-12-04T11:45:06;-1.50;99.90
46730;DHT22;32476;50.002;11.854;2023-12-04T11:51:08;-1.00;99.90
46730;DHT22;32476;50.002;11.854;2023-12-04T11:53:38;-0.80;99.90
46730;DHT22;32476;50.002;11.854;2023-12-04T11:56:10;-0.70;99.90
46730;DHT22;32476;50.002;11.854;2023-12-04T11:58:44;-0.90;99.90
46730;DHT22;32476;50.002;11.854;2023-12-04T12:01:12;-1.00;99.90
46730;DHT22;32476;50.002;11.854;2023-12-04T12:03:38;-1.10;99.90
46730;DHT22;32476;50.002;11.854;2023-12-04T12:06:05;-1.50;99.90
46730;DHT22;32476;50.002;11.854;2023-12-04T12:08:33;-1.60;99.90
46730;DHT22;32476;50.002;11.854;2023-12-04T12:10:59;-1.80;99.90
46730;DHT22;32476;50.002;11.854;2023-12-04T12:13:29;-1.90;99.90
46730;DHT22;32476;50.002;11.854;2023-12-04T12:15:56;-2.00;99.90
46730;DHT22;32476;50.002;11.854;2023-12-04T12:18:24;-2.00;99.90
46730;DHT22;32476;50.002;11.854;2023-12-04T12:20:50;-2.00;99.90
46730;DHT22;32476;50.002;11.854;2023-12-04T12:26:35;-2.00;99.90
46730;DHT22;32476;50.002;11.854;2023-12-04T12:29:03;-2.10;99.90
46730;DHT22;32476;50.002;11.854;2023-12-04T12:31:28;-2.10;99.90
46730;DHT22;32476;50.002;11.854;2023-12-04T12:33:56;-2.10;99.90
46730;DHT22;32476;50.002;11.854;2023-12-04T12:36:24;-2.20;99.90
46730;DHT22;32476;50.002;11.854;2023-12-04T12:38:50;-2.30;99.90
46730;DHT22;32476;50.002;11.854;2023-12-04T12:41:16;-2.40;99.90
46730;DHT22;32476;50.002;11.854;2023-12-04T12:43:44;-2.50;99.90
46730;DHT22;32476;50.002;11.854;2023-12-04T12:46:10;-2.50;99.90
46730;DHT22;32476;50.002;11.854;2023-12-04T12:48:36;-2.50;99.90
46730;DHT22;32476;50.002;11.854;2023-12-04T12:51:04;-2.60;99.90
46730;DHT22;32476;50.002;11.854;2023-12-04T12:53:32;-2.50;99.90
46730;DHT22;32476;50.002;11.854;2023-12-04T12:55:59;-2.50;99.90
46730;DHT22;32476;50.002;11.854;2023-12-04T12:58:28;-2.50;99.90
46730;DHT22;32476;50.002;11.854;2023-12-04T13:00:54;-2.60;99.90
46730;DHT22;32476;50.002;11.854;2023-12-04T13:03:21;-2.70;99.90
46730;DHT22;32476;50.002;11.854;2023-12-04T13:05:49;-3.00;99.90
46730;DHT22;32476;50.002;11.854;2023-12-04T13:08:21;-3.10;99.90
46730;DHT22;32476;50.002;11.854;2023-12-04T13:10:56;-3.10;99.90
46730;DHT22;32476;50.002;11.854;2023-12-04T13:13:22;-3.20;99.90
46730;DHT22;32476;50.002;11.854;2023-12-04T13:16:17;-3.20;99.90
46730;DHT22;32476;50.002;11.854;2023-12-04T13:18:42;-3.30;99.90
46730;DHT22;32476;50.002;11.854;2023-12-04T13:21:10;-3.40;99.90
46730;DHT22;32476;50.002;11.854;2023-12-04T13:23:41;-3.40;99.90
46730;DHT22;32476;50.002;11.854;2023-12-04T13:26:07;-3.40;99.90
46730;DHT22;32476;50.002;11.854;2023-12-04T13:28:37;-3.50;99.90
46730;DHT22;32476;50.002;11.854;2023-12-04T13:31:04;-3.50;99.90
46730;DHT22;32476;50.002;11.854;2023-12-04T13:33:30;-3.60;99.90
46730;DHT22;32476;50.002;11.854;2023-12-04T13:35:59;-3.50;99.90
46730;DHT22;32476;50.002;11.854;2023-12-04T13:38:25;-3.60;99.90
46730;DHT22;32476;50.002;11.854;2023-12-04T13:40:51;-3.50;99.90
46730;DHT22;32476;50.002;11.854;2023-12-04T13:43:40;-3.50;99.90
46730;DHT22;32476;50.002;11.854;2023-12-04T13:46:20;-3.50;99.90
46730;DHT22;32476;50.002;11.854;2023-12-04T13:48:50;-3.50;99.90
46730;DHT22;32476;50.002;11.854;2023-12-04T13:51:16;-3.60;99.90
46730;DHT22;32476;50.002;11.854;2023-12-04T13:53:58;-3.60;99.90
46730;DHT22;32476;50.002;11.854;2023-12-04T13:56:41;-3.60;99.90
46730;DHT22;32476;50.002;11.854;2023-12-04T13:59:18;-3.70;99.90
46730;DHT22;32476;50.002;11.854;2023-12-04T14:01:49;-3.70;99.90
46730;DHT22;32476;50.002;11.854;2023-12-04T14:04:20;-3.70;99.90
46730;DHT22;32476;50.002;11.854;2023-12-04T14:06:48;-3.80;99.90
46730;DHT22;32476;50.002;11.854;2023-12-04T14:09:19;-3.80;99.90
46730;DHT22;32476;50.002;11.854;2023-12-04T14:11:48;-3.90;99.90
46730;DHT22;32476;50.002;11.854;2023-12-04T14:14:22;-3.90;99.90
46730;DHT22;32476;50.002;11.854;2023-12-04T14:16:49;-3.90;99.90
46730;DHT22;32476;50.002;11.854;2023-12-04T14:19:15;-3.90;99.90
46730;DHT22;32476;50.002;11.854;2023-12-04T14:21:43;-3.90;99.90
46730;DHT22;32476;50.002;11.854;2023-12-04T14:24:10;-3.90;99.90
46730;DHT22;32476;50.002;11.854;2023-12-04T14:26:36;-3.90;99.90
46730;DHT22;32476;50.002;11.854;2023-12-04T14:29:02;-3.90;99.90
46730;DHT22;32476;50.002;11.854;2023-12-04T14:31:30;-3.90;99.90
46730;DHT22;32476;50.002;11.854;2023-12-04T14:33:56;-3.80;99.90
46730;DHT22;32476;50.002;11.854;2023-12-04T14:36:22;-3.80;99.90
46730;DHT22;32476;50.002;11.854;2023-12-04T14:38:49;-3.80;99.90
46730;DHT22;32476;50.002;11.854;2023-12-04T14:41:15;-3.80;99.90
46730;DHT22;32476;50.002;11.854;2023-12-04T14:43:41;-3.80;99.90
46730;DHT22;32476;50.002;11.854;2023-12-04T14:46:10;-3.80;99.90
46730;DHT22;32476;50.002;11.854;2023-12-04T14:48:38;-3.90;99.90
46730;DHT22;32476;50.002;11.854;2023-12-04T14:51:08;-4.00;99.90
46730;DHT22;32476;50.002;11.854;2023-12-04T14:53:39;-4.10;99.90
46730;DHT22;32476;50.002;11.854;2023-12-04T14:56:29;-4.20;99.90
46730;DHT22;32476;50.002;11.854;2023-12-04T14:59:03;-4.30;99.90
46730;DHT22;32476;50.002;11.854;2023-12-04T15:01:32;-4.40;99.90
46730;DHT22;32476;50.002;11.854;2023-12-04T15:04:38;-4.40;99.90
46730;DHT22;32476;50.002;11.854;2023-12-04T15:07:28;-4.40;99.90
46730;DHT22;32476;50.002;11.854;2023-12-04T15:10:16;-4.50;99.90
46730;DHT22;32476;50.002;11.854;2023-12-04T15:13:05;-4.60;99.90
46730;DHT22;32476;50.002;11.854;2023-12-04T15:15:52;-4.70;99.90
46730;DHT22;32476;50.002;11.854;2023-12-04T15:18:36;-4.70;99.90
46730;DHT22;32476;50.002;11.854;2023-12-04T15:21:10;-4.70;99.90
46730;DHT22;32476;50.002;11.854;2023-12-04T15:23:36;-4.70;99.90
46730;DHT22;32476;50.002;11.854;2023-12-04T15:26:21;-4.70;99.90
46730;DHT22;32476;50.002;11.854;2023-12-04T15:28:48;-4.80;99.90
46730;DHT22;32476;50.002;11.854;2023-12-04T15:31:14;-4.70;99.90
46730;DHT22;32476;50.002;11.854;2023-12-04T15:33:40;-4.70;99.90
46730;DHT22;32476;50.002;11.854;2023-12-04T15:36:08;-4.80;99.90
46730;DHT22;32476;50.002;11.854;2023-12-04T15:38:36;-4.80;99.90